Address 0x4fc866784c5e37ed9bc930256beae821d91f3def 3

 
 
Txn Hash Method
Block
From
To
Value [Txn Fee]
0xc0d81c100c1c4e5bca62409e16085be3f46900be6484a907aef2518c263595e4Transfer111523872021-09-23 2:00:56128 days 1 hr ago0x4fc866784c5e37ed9bc930256beae821d91f3defOUT0x2d5a6d7ab823d0bb44cfc2c35651c4be04b416df2.5 BNB0.000105
0xd0bdb8a7794783c18faa3b50d2d9b43f0b94c064537605f0543c4f59a34eeb50Transfer98798222021-08-09 11:35:54172 days 16 hrs ago0x4fc866784c5e37ed9bc930256beae821d91f3defOUT0xa75f1aaea1d18bf81307543c7f955041d7048a523.99 BNB0.000126
0x30e2dd6dd0110b3e9eaa24f2bb77e65b40dc727034d7585e79e01bbc4fec12faTransfer92207082021-07-17 0:01:25196 days 3 hrs ago0x4fc866784c5e37ed9bc930256beae821d91f3defOUT 0xd54c26d2778d381a5e504931f782b6bcf16e68b10 BNB0.000218304
0x152081816bc6e2306b1c55870df755a30b9eae50f1abe12f029075816ffb176cTransfer92205552021-07-16 23:53:46196 days 3 hrs ago0x4fc866784c5e37ed9bc930256beae821d91f3defOUT 0xd54c26d2778d381a5e504931f782b6bcf16e68b10 BNB0.00051396
0xa73c6611d0f6ac395d9b4af50ec9c08ecdc3a2a154a40ce882fe809b1663aab0Transfer92205352021-07-16 23:52:46196 days 3 hrs ago0x4fc866784c5e37ed9bc930256beae821d91f3defOUT 0xd54c26d2778d381a5e504931f782b6bcf16e68b10 BNB0.00036396
0x7ad34ffd9ba432fdf4f96b5e53a80d384784ec06febab5e5c3bbdd9ea7978723Transfer92159832021-07-16 20:05:10196 days 7 hrs ago0x4fc866784c5e37ed9bc930256beae821d91f3defOUT0xd983072e9b02ec3fb1a54144fd7754d7e5712a156.119 BNB0.000105
0xdb88837b8bea8c1ef9d0b592a025a75e65d01439370128606eeb9f3872e19719Transfer92159742021-07-16 20:04:43196 days 7 hrs ago0x4fc866784c5e37ed9bc930256beae821d91f3defOUT 0xd54c26d2778d381a5e504931f782b6bcf16e68b10 BNB0.00018198
0x5a0843ea4cbd52b6463736fd14a397e7b13349f453ed70eb86d953222eb8ad7fTransfer92158812021-07-16 20:00:04196 days 7 hrs ago0x4fc866784c5e37ed9bc930256beae821d91f3defOUT 0xd54c26d2778d381a5e504931f782b6bcf16e68b10 BNB0.00018192
0xdc53e81e6722fde606c35fccb7bf03d4e71dfeba1560eba88884401ea8436b75Transfer92150572021-07-16 19:18:52196 days 8 hrs ago0x4fc866784c5e37ed9bc930256beae821d91f3defOUT 0xd54c26d2778d381a5e504931f782b6bcf16e68b10 BNB0.00025692
0xfd715e1a7745b08d4317f5bc0f84539c3df80cf0347800baa337dd22845457d2Transfer92149812021-07-16 19:15:04196 days 8 hrs ago0x4fc866784c5e37ed9bc930256beae821d91f3defOUT 0xd54c26d2778d381a5e504931f782b6bcf16e68b10 BNB0.00025692
0xc0f6c09c864d46c3dff7daa207142416149989e319c712f843fa8f89bab25133Lock Tokens92147222021-07-16 19:02:07196 days 8 hrs ago0x4fc866784c5e37ed9bc930256beae821d91f3defOUT 0x7536592bb74b5d62eb82e8b93b17eed4eed9a85c0 BNB0.00091205
0xea0be9adf5c3ad1067d472520807f34a3f0a78eba3a29bdb52fa524fd3c4973cApprove92147142021-07-16 19:01:43196 days 8 hrs ago0x4fc866784c5e37ed9bc930256beae821d91f3defOUT 0xd54c26d2778d381a5e504931f782b6bcf16e68b10 BNB0.00022102
0xb8fe573b090666b18cea68a528035f261138c726ab5b950f96b07fa99fefcb8aLock Tokens92145702021-07-16 18:54:31196 days 8 hrs ago0x4fc866784c5e37ed9bc930256beae821d91f3defOUT 0x7536592bb74b5d62eb82e8b93b17eed4eed9a85c0 BNB0.00106205
0x3fedaaf54d3005e60aaf33c056e0f83c5eb549f5da0f5391b5644fbda04620daApprove92145582021-07-16 18:53:55196 days 8 hrs ago0x4fc866784c5e37ed9bc930256beae821d91f3defOUT 0xd54c26d2778d381a5e504931f782b6bcf16e68b10 BNB0.00022102
0xb975aa32f6548496e21b39ab1b8f644bbeb30fa77905290c606354ac31bd1e28Transfer92115322021-07-16 16:22:37196 days 11 hrs ago0x4fc866784c5e37ed9bc930256beae821d91f3defOUT0x58b8cc3bd190f5904ca69bc408468077e50391692.20204 BNB0.000105
0xb1fdea4ab381cbd457db81a42e8f8eb8534914ff88006cb5535a3c1a64f8064bTransfer92115262021-07-16 16:22:19196 days 11 hrs ago0x4fc866784c5e37ed9bc930256beae821d91f3defOUT 0xd54c26d2778d381a5e504931f782b6bcf16e68b10 BNB0.00018186
0x6bdfa5c087604d94bdd92e43502eaa4ddd6ac5034d857bb0bf835faf29975f37Transfer92114932021-07-16 16:20:40196 days 11 hrs ago0x4fc866784c5e37ed9bc930256beae821d91f3defOUT0xd49f2de32d89191a74ec31107e293496a984aac34.19959 BNB0.000105
0x4a1af5d4c907cd547805dc183e21711a31a854cfa2206d054391efc96fa98bf1Transfer92114852021-07-16 16:20:16196 days 11 hrs ago0x4fc866784c5e37ed9bc930256beae821d91f3defOUT 0xd54c26d2778d381a5e504931f782b6bcf16e68b10 BNB0.00018192
0x902ec6073fddf06ce33b67df4c6fce973ff491d5dc49f9b150b2775968455077Transfer92114532021-07-16 16:18:40196 days 11 hrs ago0x4fc866784c5e37ed9bc930256beae821d91f3defOUT 0xd54c26d2778d381a5e504931f782b6bcf16e68b10 BNB0.00018186
0x89612cc3d97a432ebe8292b891cf6afe981de2fde5c4a1faa06d44fe95609f1eTransfer92113872021-07-16 16:15:22196 days 11 hrs ago0x4fc866784c5e37ed9bc930256beae821d91f3defOUT 0xd54c26d2778d381a5e504931f782b6bcf16e68b10 BNB0.00018186
0xfa17a5359a8fa5c4bb410c50e577e04f65e3b4fd75a512e36de451de80a88d9bTransfer92111162021-07-16 16:01:49196 days 11 hrs ago0x4fc866784c5e37ed9bc930256beae821d91f3defOUT0x3b1d7bb160f6aa9d4770715c8bb8822c4778036a0.032053336752355 BNB0.000105
0x0f310307f9f00c7b2bfe054fcfadf2bbbe1f115af28971d7c506745aee352d67Transfer92109922021-07-16 15:55:37196 days 11 hrs ago0x4fc866784c5e37ed9bc930256beae821d91f3defOUT 0xd54c26d2778d381a5e504931f782b6bcf16e68b10 BNB0.00018192
0x19a387fa83d85838535d04fa16a93cead3d32f7dba7600171f820b021d33db8dTransfer92109842021-07-16 15:55:13196 days 11 hrs ago0x4fc866784c5e37ed9bc930256beae821d91f3defOUT 0xd54c26d2778d381a5e504931f782b6bcf16e68b10 BNB0.00018174
0xf63a3f578fd0741d51f9590d76b0c7f584524bab5482be72966a9a9f6a045039Transfer92108932021-07-16 15:50:40196 days 12 hrs ago0x4fc866784c5e37ed9bc930256beae821d91f3defOUT 0xd54c26d2778d381a5e504931f782b6bcf16e68b10 BNB0.00025692
0xa7c845de02e484f6959912719d0b882728c9044159fefe7bb7e039da6ce7cf9dTransfer92108432021-07-16 15:48:10196 days 12 hrs ago0x4fc866784c5e37ed9bc930256beae821d91f3defOUT0xb9bc4504281f8488eea5559a65b462689699d10f4.98 BNB0.000105
[ Download CSV Export 
Latest 3 internal transactions
Parent Txn Hash Block From To Value
0x81b57c36a33c745963443b34770ccf5a4b9c8f5b145bd924904ebacf4754eff091850952021-07-15 18:20:14197 days 9 hrs ago PancakeSwap: Router v20x4fc866784c5e37ed9bc930256beae821d91f3def20.598264556666742207 BNB
0xbe7e594bbe10216ee5b73fd1d12ac876b3a375eb267e9c70763a82dfe17a4bcb74369622021-05-15 17:38:20258 days 10 hrs ago PancakeSwap: Router v20x4fc866784c5e37ed9bc930256beae821d91f3def1 wei
0x4e2c6b237419407be93e28c268dccb2639efebcc20b591445099562b63c3f46274352002021-05-15 16:09:46258 days 11 hrs ago CoinTool: MultiSender0x4fc866784c5e37ed9bc930256beae821d91f3def0.0017 BNB
[ Download CSV Export 
Loading

Contract Name:
0 BNB

Compiler Version
0

Optimization Enabled:
0 BNB

Other Settings:
-NA-
Block Transaction Gas Used Reward
Age Block Fee Address BC Fee Address Voting Power Jailed Incoming
Block Uncle Number Difficulty Gas Used Reward
Loading
Loading
Make sure to use the "Vote Down" button for any spammy posts, and the "Vote Up" for interesting conversations.